sensor_id;sensor_type;location;lat;lon;timestamp;P1;durP1;ratioP1;P2;durP2;ratioP2
10769;SDS011;5437;50.852;4.438;2023-02-03T00:01:53;7.40;;;3.05;;
10769;SDS011;5437;50.852;4.438;2023-02-03T00:04:19;8.18;;;2.90;;
10769;SDS011;5437;50.852;4.438;2023-02-03T00:06:45;6.10;;;3.03;;
10769;SDS011;5437;50.852;4.438;2023-02-03T00:09:11;8.85;;;3.20;;
10769;SDS011;5437;50.852;4.438;2023-02-03T00:11:38;7.35;;;2.83;;
10769;SDS011;5437;50.852;4.438;2023-02-03T00:14:04;7.78;;;2.92;;
10769;SDS011;5437;50.852;4.438;2023-02-03T00:16:31;6.45;;;2.83;;
10769;SDS011;5437;50.852;4.438;2023-02-03T00:18:57;7.38;;;2.90;;
10769;SDS011;5437;50.852;4.438;2023-02-03T00:21:23;6.72;;;3.05;;
10769;SDS011;5437;50.852;4.438;2023-02-03T00:23:50;8.10;;;2.90;;
10769;SDS011;5437;50.852;4.438;2023-02-03T00:26:16;7.47;;;3.55;;
10769;SDS011;5437;50.852;4.438;2023-02-03T00:28:42;9.27;;;3.00;;
10769;SDS011;5437;50.852;4.438;2023-02-03T00:31:18;6.65;;;3.00;;
10769;SDS011;5437;50.852;4.438;2023-02-03T00:33:44;9.30;;;2.70;;
10769;SDS011;5437;50.852;4.438;2023-02-03T00:36:10;4.60;;;2.75;;
10769;SDS011;5437;50.852;4.438;2023-02-03T00:38:37;7.63;;;2.80;;
10769;SDS011;5437;50.852;4.438;2023-02-03T00:41:03;5.18;;;2.72;;
10769;SDS011;5437;50.852;4.438;2023-02-03T00:43:29;7.28;;;2.90;;
10769;SDS011;5437;50.852;4.438;2023-02-03T00:45:55;6.45;;;2.28;;
10769;SDS011;5437;50.852;4.438;2023-02-03T00:48:21;7.55;;;2.70;;
10769;SDS011;5437;50.852;4.438;2023-02-03T00:50:47;6.28;;;2.63;;
10769;SDS011;5437;50.852;4.438;2023-02-03T00:53:13;9.57;;;2.60;;
10769;SDS011;5437;50.852;4.438;2023-02-03T00:55:41;6.78;;;2.60;;
10769;SDS011;5437;50.852;4.438;2023-02-03T00:58:07;8.77;;;2.83;;
10769;SDS011;5437;50.852;4.438;2023-02-03T01:00:33;6.63;;;2.83;;
10769;SDS011;5437;50.852;4.438;2023-02-03T01:02:59;5.78;;;2.70;;
10769;SDS011;5437;50.852;4.438;2023-02-03T01:05:25;6.07;;;2.72;;
10769;SDS011;5437;50.852;4.438;2023-02-03T01:07:51;7.80;;;2.25;;
10769;SDS011;5437;50.852;4.438;2023-02-03T01:10:17;7.78;;;2.47;;
10769;SDS011;5437;50.852;4.438;2023-02-03T01:12:43;6.30;;;2.47;;
10769;SDS011;5437;50.852;4.438;2023-02-03T01:15:09;6.38;;;2.72;;
10769;SDS011;5437;50.852;4.438;2023-02-03T01:17:35;6.05;;;2.40;;
10769;SDS011;5437;50.852;4.438;2023-02-03T01:20:01;6.35;;;2.47;;
10769;SDS011;5437;50.852;4.438;2023-02-03T01:22:28;9.32;;;3.00;;
10769;SDS011;5437;50.852;4.438;2023-02-03T01:24:54;10.25;;;2.67;;
10769;SDS011;5437;50.852;4.438;2023-02-03T01:27:20;6.72;;;2.60;;
10769;SDS011;5437;50.852;4.438;2023-02-03T01:29:46;8.80;;;2.50;;
10769;SDS011;5437;50.852;4.438;2023-02-03T01:32:12;6.18;;;2.60;;
10769;SDS011;5437;50.852;4.438;2023-02-03T01:34:38;6.57;;;2.40;;
10769;SDS011;5437;50.852;4.438;2023-02-03T01:37:04;9.73;;;2.40;;
10769;SDS011;5437;50.852;4.438;2023-02-03T01:39:30;10.73;;;2.70;;
10769;SDS011;5437;50.852;4.438;2023-02-03T01:41:56;5.53;;;2.10;;
10769;SDS011;5437;50.852;4.438;2023-02-03T01:44:42;8.77;;;2.53;;
10769;SDS011;5437;50.852;4.438;2023-02-03T01:47:16;8.75;;;2.58;;
10769;SDS011;5437;50.852;4.438;2023-02-03T01:49:44;5.32;;;2.42;;
10769;SDS011;5437;50.852;4.438;2023-02-03T01:52:13;6.65;;;2.33;;
10769;SDS011;5437;50.852;4.438;2023-02-03T01:54:40;8.90;;;2.70;;
10769;SDS011;5437;50.852;4.438;2023-02-03T01:57:21;7.50;;;2.30;;
10769;SDS011;5437;50.852;4.438;2023-02-03T01:59:48;8.50;;;2.33;;
10769;SDS011;5437;50.852;4.438;2023-02-03T02:02:14;6.13;;;1.90;;
10769;SDS011;5437;50.852;4.438;2023-02-03T02:04:52;7.43;;;2.10;;
10769;SDS011;5437;50.852;4.438;2023-02-03T02:07:19;7.50;;;2.03;;
10769;SDS011;5437;50.852;4.438;2023-02-03T02:09:45;11.07;;;2.17;;
10769;SDS011;5437;50.852;4.438;2023-02-03T02:12:12;8.60;;;2.10;;
10769;SDS011;5437;50.852;4.438;2023-02-03T02:14:38;6.47;;;1.98;;
10769;SDS011;5437;50.852;4.438;2023-02-03T02:17:12;9.38;;;2.10;;
10769;SDS011;5437;50.852;4.438;2023-02-03T02:25:20;8.68;;;2.45;;
10769;SDS011;5437;50.852;4.438;2023-02-03T02:35:57;6.70;;;2.10;;
10769;SDS011;5437;50.852;4.438;2023-02-03T02:43:25;7.78;;;1.90;;
10769;SDS011;5437;50.852;4.438;2023-02-03T02:45:54;7.85;;;2.40;;
10769;SDS011;5437;50.852;4.438;2023-02-03T02:48:23;5.65;;;2.03;;
10769;SDS011;5437;50.852;4.438;2023-02-03T02:50:51;6.57;;;2.00;;
10769;SDS011;5437;50.852;4.438;2023-02-03T02:53:18;5.78;;;1.83;;
10769;SDS011;5437;50.852;4.438;2023-02-03T02:55:45;7.22;;;1.73;;
10769;SDS011;5437;50.852;4.438;2023-02-03T02:58:12;6.15;;;2.17;;
10769;SDS011;5437;50.852;4.438;2023-02-03T03:00:39;5.00;;;1.50;;
10769;SDS011;5437;50.852;4.438;2023-02-03T03:05:37;5.40;;;1.80;;
10769;SDS011;5437;50.852;4.438;2023-02-03T03:08:03;5.63;;;2.13;;
10769;SDS011;5437;50.852;4.438;2023-02-03T03:10:30;7.90;;;1.92;;
10769;SDS011;5437;50.852;4.438;2023-02-03T03:12:59;6.43;;;1.70;;
10769;SDS011;5437;50.852;4.438;2023-02-03T03:15:26;4.50;;;2.08;;
10769;SDS011;5437;50.852;4.438;2023-02-03T03:20:25;5.70;;;1.90;;
10769;SDS011;5437;50.852;4.438;2023-02-03T03:22:54;9.02;;;1.70;;
10769;SDS011;5437;50.852;4.438;2023-02-03T03:25:23;7.32;;;1.85;;
10769;SDS011;5437;50.852;4.438;2023-02-03T03:27:51;4.97;;;1.73;;
10769;SDS011;5437;50.852;4.438;2023-02-03T03:30:22;4.50;;;1.50;;
10769;SDS011;5437;50.852;4.438;2023-02-03T03:32:49;7.78;;;1.83;;
10769;SDS011;5437;50.852;4.438;2023-02-03T03:35:15;5.90;;;1.60;;
10769;SDS011;5437;50.852;4.438;2023-02-03T03:40:09;2.90;;;1.58;;
10769;SDS011;5437;50.852;4.438;2023-02-03T03:47:48;5.28;;;1.73;;
10769;SDS011;5437;50.852;4.438;2023-02-03T03:50:24;2.25;;;1.42;;
10769;SDS011;5437;50.852;4.438;2023-02-03T03:52:51;3.80;;;1.45;;
10769;SDS011;5437;50.852;4.438;2023-02-03T03:55:18;5.60;;;1.63;;
10769;SDS011;5437;50.852;4.438;2023-02-03T03:57:48;7.00;;;1.80;;
10769;SDS011;5437;50.852;4.438;2023-02-03T04:00:16;3.85;;;1.45;;
10769;SDS011;5437;50.852;4.438;2023-02-03T04:02:45;6.70;;;1.70;;
10769;SDS011;5437;50.852;4.438;2023-02-03T04:05:14;4.82;;;1.40;;
10769;SDS011;5437;50.852;4.438;2023-02-03T04:07:41;7.38;;;1.88;;
10769;SDS011;5437;50.852;4.438;2023-02-03T04:10:20;6.53;;;1.70;;
10769;SDS011;5437;50.852;4.438;2023-02-03T04:12:46;4.35;;;1.65;;
10769;SDS011;5437;50.852;4.438;2023-02-03T04:15:12;5.97;;;1.67;;
10769;SDS011;5437;50.852;4.438;2023-02-03T04:17:39;5.80;;;1.83;;
10769;SDS011;5437;50.852;4.438;2023-02-03T04:20:05;4.35;;;1.65;;
10769;SDS011;5437;50.852;4.438;2023-02-03T04:22:31;3.97;;;1.45;;
10769;SDS011;5437;50.852;4.438;2023-02-03T04:24:57;4.55;;;1.50;;
10769;SDS011;5437;50.852;4.438;2023-02-03T04:27:26;6.13;;;1.80;;
10769;SDS011;5437;50.852;4.438;2023-02-03T04:29:52;6.43;;;1.70;;
10769;SDS011;5437;50.852;4.438;2023-02-03T04:32:18;4.10;;;1.67;;
10769;SDS011;5437;50.852;4.438;2023-02-03T04:34:44;3.83;;;1.33;;
10769;SDS011;5437;50.852;4.438;2023-02-03T04:37:10;2.20;;;1.10;;
10769;SDS011;5437;50.852;4.438;2023-02-03T04:39:36;4.05;;;1.30;;
10769;SDS011;5437;50.852;4.438;2023-02-03T04:42:02;4.43;;;1.75;;
10769;SDS011;5437;50.852;4.438;2023-02-03T04:44:28;4.57;;;1.50;;
10769;SDS011;5437;50.852;4.438;2023-02-03T04:46:54;3.88;;;1.42;;
10769;SDS011;5437;50.852;4.438;2023-02-03T04:49:20;4.80;;;1.50;;
10769;SDS011;5437;50.852;4.438;2023-02-03T04:51:50;3.20;;;1.42;;
10769;SDS011;5437;50.852;4.438;2023-02-03T04:54:16;4.25;;;1.50;;
10769;SDS011;5437;50.852;4.438;2023-02-03T04:56:42;4.20;;;1.13;;
10769;SDS011;5437;50.852;4.438;2023-02-03T04:59:08;6.13;;;1.75;;
10769;SDS011;5437;50.852;4.438;2023-02-03T05:01:34;4.65;;;1.40;;
10769;SDS011;5437;50.852;4.438;2023-02-03T05:04:00;4.32;;;1.42;;
10769;SDS011;5437;50.852;4.438;2023-02-03T05:06:27;6.18;;;1.33;;
10769;SDS011;5437;50.852;4.438;2023-02-03T05:08:53;4.47;;;1.40;;
10769;SDS011;5437;50.852;4.438;2023-02-03T05:11:20;4.57;;;1.27;;
10769;SDS011;5437;50.852;4.438;2023-02-03T05:13:46;4.00;;;1.20;;
10769;SDS011;5437;50.852;4.438;2023-02-03T05:16:13;6.30;;;1.30;;
10769;SDS011;5437;50.852;4.438;2023-02-03T05:18:39;2.95;;;1.10;;
10769;SDS011;5437;50.852;4.438;2023-02-03T05:21:05;3.92;;;1.50;;
10769;SDS011;5437;50.852;4.438;2023-02-03T05:23:31;4.43;;;1.27;;
10769;SDS011;5437;50.852;4.438;2023-02-03T05:25:57;3.90;;;1.10;;
10769;SDS011;5437;50.852;4.438;2023-02-03T05:28:23;5.75;;;1.30;;
10769;SDS011;5437;50.852;4.438;2023-02-03T05:30:49;3.38;;;1.17;;
10769;SDS011;5437;50.852;4.438;2023-02-03T05:33:15;5.53;;;1.48;;
10769;SDS011;5437;50.852;4.438;2023-02-03T05:35:41;5.47;;;1.33;;
10769;SDS011;5437;50.852;4.438;2023-02-03T05:38:07;5.20;;;1.50;;
10769;SDS011;5437;50.852;4.438;2023-02-03T05:40:33;3.20;;;1.55;;
10769;SDS011;5437;50.852;4.438;2023-02-03T05:43:18;5.63;;;1.48;;
10769;SDS011;5437;50.852;4.438;2023-02-03T05:45:44;3.78;;;1.15;;
10769;SDS011;5437;50.852;4.438;2023-02-03T05:48:10;6.53;;;1.65;;
10769;SDS011;5437;50.852;4.438;2023-02-03T05:50:37;3.63;;;1.17;;
10769;SDS011;5437;50.852;4.438;2023-02-03T05:53:03;3.50;;;1.40;;
10769;SDS011;5437;50.852;4.438;2023-02-03T05:55:30;3.28;;;1.20;;
10769;SDS011;5437;50.852;4.438;2023-02-03T05:57:57;4.07;;;1.65;;
10769;SDS011;5437;50.852;4.438;2023-02-03T06:00:25;2.88;;;1.30;;
10769;SDS011;5437;50.852;4.438;2023-02-03T06:02:54;4.40;;;1.10;;
10769;SDS011;5437;50.852;4.438;2023-02-03T06:05:21;3.42;;;1.40;;
10769;SDS011;5437;50.852;4.438;2023-02-03T06:07:47;5.70;;;1.48;;
10769;SDS011;5437;50.852;4.438;2023-02-03T06:10:13;4.78;;;1.40;;
10769;SDS011;5437;50.852;4.438;2023-02-03T06:12:39;6.03;;;1.65;;
10769;SDS011;5437;50.852;4.438;2023-02-03T06:15:06;3.45;;;1.17;;
10769;SDS011;5437;50.852;4.438;2023-02-03T06:17:32;5.70;;;1.50;;
10769;SDS011;5437;50.852;4.438;2023-02-03T06:19:59;4.55;;;1.52;;
10769;SDS011;5437;50.852;4.438;2023-02-03T06:22:26;3.75;;;1.50;;
10769;SDS011;5437;50.852;4.438;2023-02-03T06:24:52;2.30;;;1.30;;
10769;SDS011;5437;50.852;4.438;2023-02-03T06:27:18;5.60;;;1.65;;
10769;SDS011;5437;50.852;4.438;2023-02-03T06:29:44;6.85;;;1.30;;
10769;SDS011;5437;50.852;4.438;2023-02-03T06:32:10;3.28;;;1.35;;
10769;SDS011;5437;50.852;4.438;2023-02-03T06:34:36;3.97;;;1.42;;
10769;SDS011;5437;50.852;4.438;2023-02-03T06:37:02;3.83;;;1.42;;
10769;SDS011;5437;50.852;4.438;2023-02-03T06:39:28;5.88;;;1.27;;
10769;SDS011;5437;50.852;4.438;2023-02-03T06:41:54;3.70;;;1.40;;
10769;SDS011;5437;50.852;4.438;2023-02-03T06:44:20;5.55;;;1.50;;
10769;SDS011;5437;50.852;4.438;2023-02-03T06:46:46;4.85;;;1.30;;
10769;SDS011;5437;50.852;4.438;2023-02-03T06:49:14;3.38;;;1.38;;
10769;SDS011;5437;50.852;4.438;2023-02-03T06:51:41;3.40;;;1.58;;
10769;SDS011;5437;50.852;4.438;2023-02-03T06:54:07;3.53;;;1.17;;
10769;SDS011;5437;50.852;4.438;2023-02-03T06:56:33;5.10;;;1.58;;
10769;SDS011;5437;50.852;4.438;2023-02-03T06:58:59;4.75;;;1.63;;
10769;SDS011;5437;50.852;4.438;2023-02-03T07:01:25;4.88;;;1.88;;
10769;SDS011;5437;50.852;4.438;2023-02-03T07:03:51;3.13;;;1.58;;
10769;SDS011;5437;50.852;4.438;2023-02-03T07:06:18;5.85;;;1.48;;
10769;SDS011;5437;50.852;4.438;2023-02-03T07:08:44;2.88;;;1.50;;
10769;SDS011;5437;50.852;4.438;2023-02-03T07:11:10;5.15;;;1.33;;
10769;SDS011;5437;50.852;4.438;2023-02-03T07:13:36;5.43;;;1.58;;
10769;SDS011;5437;50.852;4.438;2023-02-03T07:16:02;4.72;;;1.65;;
10769;SDS011;5437;50.852;4.438;2023-02-03T07:18:28;6.53;;;1.30;;
10769;SDS011;5437;50.852;4.438;2023-02-03T07:20:55;5.03;;;1.45;;
10769;SDS011;5437;50.852;4.438;2023-02-03T07:23:21;3.08;;;1.40;;
10769;SDS011;5437;50.852;4.438;2023-02-03T07:25:47;5.93;;;1.77;;
10769;SDS011;5437;50.852;4.438;2023-02-03T07:28:13;4.50;;;1.50;;
10769;SDS011;5437;50.852;4.438;2023-02-03T07:30:39;5.05;;;1.40;;
10769;SDS011;5437;50.852;4.438;2023-02-03T07:33:05;3.03;;;1.70;;
10769;SDS011;5437;50.852;4.438;2023-02-03T07:35:32;4.38;;;1.50;;
10769;SDS011;5437;50.852;4.438;2023-02-03T07:37:58;2.67;;;1.48;;
10769;SDS011;5437;50.852;4.438;2023-02-03T07:40:25;3.50;;;1.30;;
10769;SDS011;5437;50.852;4.438;2023-02-03T07:42:51;4.63;;;1.60;;
10769;SDS011;5437;50.852;4.438;2023-02-03T07:45:17;3.90;;;1.55;;
10769;SDS011;5437;50.852;4.438;2023-02-03T07:47:43;3.20;;;1.40;;
10769;SDS011;5437;50.852;4.438;2023-02-03T07:50:10;6.55;;;1.58;;
10769;SDS011;5437;50.852;4.438;2023-02-03T07:52:36;5.57;;;1.52;;
10769;SDS011;5437;50.852;4.438;2023-02-03T07:55:02;4.63;;;1.58;;
10769;SDS011;5437;50.852;4.438;2023-02-03T07:57:28;7.78;;;2.28;;
10769;SDS011;5437;50.852;4.438;2023-02-03T07:59:54;4.45;;;1.83;;
10769;SDS011;5437;50.852;4.438;2023-02-03T08:02:20;4.03;;;1.45;;
10769;SDS011;5437;50.852;4.438;2023-02-03T08:04:46;3.67;;;1.80;;
10769;SDS011;5437;50.852;4.438;2023-02-03T08:07:12;5.63;;;1.90;;
10769;SDS011;5437;50.852;4.438;2023-02-03T08:09:38;4.18;;;1.70;;
10769;SDS011;5437;50.852;4.438;2023-02-03T08:12:04;6.38;;;1.65;;
10769;SDS011;5437;50.852;4.438;2023-02-03T08:14:31;6.63;;;1.88;;
10769;SDS011;5437;50.852;4.438;2023-02-03T08:16:57;4.15;;;1.70;;
10769;SDS011;5437;50.852;4.438;2023-02-03T08:19:23;4.30;;;1.73;;
10769;SDS011;5437;50.852;4.438;2023-02-03T08:21:49;5.78;;;1.50;;
10769;SDS011;5437;50.852;4.438;2023-02-03T08:24:15;5.68;;;1.50;;
10769;SDS011;5437;50.852;4.438;2023-02-03T08:26:41;5.22;;;1.60;;
10769;SDS011;5437;50.852;4.438;2023-02-03T08:29:07;3.67;;;1.23;;
10769;SDS011;5437;50.852;4.438;2023-02-03T08:31:35;5.85;;;1.75;;
10769;SDS011;5437;50.852;4.438;2023-02-03T08:34:01;5.45;;;1.60;;
10769;SDS011;5437;50.852;4.438;2023-02-03T08:36:27;5.65;;;1.90;;
10769;SDS011;5437;50.852;4.438;2023-02-03T08:38:53;5.47;;;1.70;;
10769;SDS011;5437;50.852;4.438;2023-02-03T08:41:19;2.67;;;1.80;;
10769;SDS011;5437;50.852;4.438;2023-02-03T08:43:45;6.15;;;1.73;;
10769;SDS011;5437;50.852;4.438;2023-02-03T08:46:11;6.28;;;1.95;;
10769;SDS011;5437;50.852;4.438;2023-02-03T08:48:38;5.28;;;1.88;;
10769;SDS011;5437;50.852;4.438;2023-02-03T08:51:10;4.13;;;1.60;;
10769;SDS011;5437;50.852;4.438;2023-02-03T08:53:37;5.60;;;1.73;;
10769;SDS011;5437;50.852;4.438;2023-02-03T08:56:04;4.30;;;1.60;;
10769;SDS011;5437;50.852;4.438;2023-02-03T08:58:30;6.47;;;1.85;;
10769;SDS011;5437;50.852;4.438;2023-02-03T09:01:04;5.63;;;1.80;;
10769;SDS011;5437;50.852;4.438;2023-02-03T09:03:30;4.25;;;1.60;;
10769;SDS011;5437;50.852;4.438;2023-02-03T09:05:56;4.28;;;1.63;;
10769;SDS011;5437;50.852;4.438;2023-02-03T09:08:22;3.88;;;1.40;;
10769;SDS011;5437;50.852;4.438;2023-02-03T09:10:48;3.15;;;1.50;;
10769;SDS011;5437;50.852;4.438;2023-02-03T09:13:14;3.33;;;1.25;;
10769;SDS011;5437;50.852;4.438;2023-02-03T09:15:40;3.95;;;1.52;;
10769;SDS011;5437;50.852;4.438;2023-02-03T09:18:06;4.68;;;1.70;;
10769;SDS011;5437;50.852;4.438;2023-02-03T09:20:32;3.90;;;1.33;;
10769;SDS011;5437;50.852;4.438;2023-02-03T09:22:58;4.28;;;1.42;;
10769;SDS011;5437;50.852;4.438;2023-02-03T09:25:24;4.30;;;1.77;;
10769;SDS011;5437;50.852;4.438;2023-02-03T09:27:50;5.35;;;1.42;;
10769;SDS011;5437;50.852;4.438;2023-02-03T09:30:16;3.17;;;1.38;;
10769;SDS011;5437;50.852;4.438;2023-02-03T09:32:42;4.85;;;1.67;;
10769;SDS011;5437;50.852;4.438;2023-02-03T09:35:12;4.43;;;1.50;;
10769;SDS011;5437;50.852;4.438;2023-02-03T09:37:38;3.67;;;1.80;;
10769;SDS011;5437;50.852;4.438;2023-02-03T09:40:04;5.68;;;1.80;;
10769;SDS011;5437;50.852;4.438;2023-02-03T09:45:02;5.63;;;1.67;;
10769;SDS011;5437;50.852;4.438;2023-02-03T09:47:34;4.00;;;1.80;;
10769;SDS011;5437;50.852;4.438;2023-02-03T09:50:02;2.45;;;1.73;;
10769;SDS011;5437;50.852;4.438;2023-02-03T09:52:36;2.40;;;1.70;;
10769;SDS011;5437;50.852;4.438;2023-02-03T09:57:48;4.68;;;1.70;;
10769;SDS011;5437;50.852;4.438;2023-02-03T10:00:22;5.05;;;1.88;;
10769;SDS011;5437;50.852;4.438;2023-02-03T10:03:01;6.78;;;1.98;;
10769;SDS011;5437;50.852;4.438;2023-02-03T10:08:02;2.75;;;1.80;;
10769;SDS011;5437;50.852;4.438;2023-02-03T10:10:40;3.63;;;1.77;;
10769;SDS011;5437;50.852;4.438;2023-02-03T10:13:10;7.03;;;2.00;;
10769;SDS011;5437;50.852;4.438;2023-02-03T10:18:05;3.75;;;2.10;;
10769;SDS011;5437;50.852;4.438;2023-02-03T10:20:34;3.08;;;2.10;;
10769;SDS011;5437;50.852;4.438;2023-02-03T10:23:03;3.88;;;1.83;;
10769;SDS011;5437;50.852;4.438;2023-02-03T10:25:44;4.13;;;2.08;;
10769;SDS011;5437;50.852;4.438;2023-02-03T10:28:15;2.97;;;2.20;;
10769;SDS011;5437;50.852;4.438;2023-02-03T10:30:43;3.50;;;2.13;;
10769;SDS011;5437;50.852;4.438;2023-02-03T10:33:12;3.47;;;2.15;;
10769;SDS011;5437;50.852;4.438;2023-02-03T10:35:49;4.88;;;2.70;;
10769;SDS011;5437;50.852;4.438;2023-02-03T10:41:02;5.90;;;2.20;;
10769;SDS011;5437;50.852;4.438;2023-02-03T10:43:28;5.45;;;2.47;;
10769;SDS011;5437;50.852;4.438;2023-02-03T10:46:14;3.92;;;2.30;;
10769;SDS011;5437;50.852;4.438;2023-02-03T10:48:40;4.10;;;1.98;;
10769;SDS011;5437;50.852;4.438;2023-02-03T10:51:29;5.18;;;2.08;;
10769;SDS011;5437;50.852;4.438;2023-02-03T10:53:59;6.30;;;2.30;;
10769;SDS011;5437;50.852;4.438;2023-02-03T10:56:27;5.68;;;2.40;;
10769;SDS011;5437;50.852;4.438;2023-02-03T10:58:55;5.00;;;2.20;;
10769;SDS011;5437;50.852;4.438;2023-02-03T11:01:23;3.75;;;2.40;;
10769;SDS011;5437;50.852;4.438;2023-02-03T11:03:54;5.82;;;2.72;;
10769;SDS011;5437;50.852;4.438;2023-02-03T11:06:21;5.68;;;2.38;;
10769;SDS011;5437;50.852;4.438;2023-02-03T11:08:48;5.10;;;2.30;;
10769;SDS011;5437;50.852;4.438;2023-02-03T11:11:31;5.13;;;2.50;;
10769;SDS011;5437;50.852;4.438;2023-02-03T11:16:25;22.27;;;5.25;;
10769;SDS011;5437;50.852;4.438;2023-02-03T11:21:18;6.85;;;3.03;;
10769;SDS011;5437;50.852;4.438;2023-02-03T11:23:46;4.05;;;2.80;;
10769;SDS011;5437;50.852;4.438;2023-02-03T11:26:13;4.57;;;2.50;;
10769;SDS011;5437;50.852;4.438;2023-02-03T11:28:41;6.38;;;2.65;;
10769;SDS011;5437;50.852;4.438;2023-02-03T11:31:14;3.85;;;2.40;;
10769;SDS011;5437;50.852;4.438;2023-02-03T11:33:41;18.58;;;3.85;;
10769;SDS011;5437;50.852;4.438;2023-02-03T11:36:08;5.53;;;2.70;;
10769;SDS011;5437;50.852;4.438;2023-02-03T11:38:35;7.00;;;2.72;;
10769;SDS011;5437;50.852;4.438;2023-02-03T11:41:02;3.58;;;2.45;;
10769;SDS011;5437;50.852;4.438;2023-02-03T11:43:28;7.32;;;2.90;;
10769;SDS011;5437;50.852;4.438;2023-02-03T11:46:02;6.55;;;2.50;;
10769;SDS011;5437;50.852;4.438;2023-02-03T11:48:34;6.55;;;2.90;;
10769;SDS011;5437;50.852;4.438;2023-02-03T11:51:19;6.05;;;2.35;;
10769;SDS011;5437;50.852;4.438;2023-02-03T12:01:54;3.95;;;2.60;;
10769;SDS011;5437;50.852;4.438;2023-02-03T12:12:41;2.47;;;2.28;;
10769;SDS011;5437;50.852;4.438;2023-02-03T12:15:27;3.25;;;2.53;;
10769;SDS011;5437;50.852;4.438;2023-02-03T12:18:03;3.97;;;2.80;;
10769;SDS011;5437;50.852;4.438;2023-02-03T12:23:12;6.40;;;3.03;;
10769;SDS011;5437;50.852;4.438;2023-02-03T12:30:37;4.63;;;3.28;;
10769;SDS011;5437;50.852;4.438;2023-02-03T12:33:18;4.15;;;3.10;;
10769;SDS011;5437;50.852;4.438;2023-02-03T12:38:13;5.30;;;2.85;;
10769;SDS011;5437;50.852;4.438;2023-02-03T12:45:44;3.92;;;2.88;;
10769;SDS011;5437;50.852;4.438;2023-02-03T12:48:16;7.57;;;3.70;;
10769;SDS011;5437;50.852;4.438;2023-02-03T12:55:52;3.80;;;2.88;;
10769;SDS011;5437;50.852;4.438;2023-02-03T12:58:26;5.65;;;2.83;;
10769;SDS011;5437;50.852;4.438;2023-02-03T13:03:25;3.97;;;3.00;;
10769;SDS011;5437;50.852;4.438;2023-02-03T13:08:22;6.55;;;3.42;;
10769;SDS011;5437;50.852;4.438;2023-02-03T13:10:52;5.63;;;3.10;;
10769;SDS011;5437;50.852;4.438;2023-02-03T13:13:22;3.70;;;2.80;;
10769;SDS011;5437;50.852;4.438;2023-02-03T13:15:51;7.20;;;3.22;;
10769;SDS011;5437;50.852;4.438;2023-02-03T13:20:50;8.38;;;3.97;;
10769;SDS011;5437;50.852;4.438;2023-02-03T13:23:16;12.73;;;4.15;;
10769;SDS011;5437;50.852;4.438;2023-02-03T13:39:02;4.43;;;2.80;;
10769;SDS011;5437;50.852;4.438;2023-02-03T13:41:36;5.05;;;3.33;;
10769;SDS011;5437;50.852;4.438;2023-02-03T13:44:03;5.47;;;3.35;;
10769;SDS011;5437;50.852;4.438;2023-02-03T13:46:33;4.32;;;3.35;;
10769;SDS011;5437;50.852;4.438;2023-02-03T13:49:00;5.78;;;3.38;;
10769;SDS011;5437;50.852;4.438;2023-02-03T13:51:36;4.35;;;3.17;;
10769;SDS011;5437;50.852;4.438;2023-02-03T13:54:11;5.05;;;3.30;;
10769;SDS011;5437;50.852;4.438;2023-02-03T13:56:39;5.75;;;3.35;;
10769;SDS011;5437;50.852;4.438;2023-02-03T14:01:40;6.25;;;3.35;;
10769;SDS011;5437;50.852;4.438;2023-02-03T14:04:52;6.80;;;4.07;;
10769;SDS011;5437;50.852;4.438;2023-02-03T14:06:54;4.35;;;3.38;;
10769;SDS011;5437;50.852;4.438;2023-02-03T14:14:43;6.25;;;3.38;;
10769;SDS011;5437;50.852;4.438;2023-02-03T14:20:00;5.97;;;4.57;;
10769;SDS011;5437;50.852;4.438;2023-02-03T14:22:28;7.20;;;3.70;;
10769;SDS011;5437;50.852;4.438;2023-02-03T14:24:55;5.53;;;3.35;;
10769;SDS011;5437;50.852;4.438;2023-02-03T14:27:24;8.05;;;3.40;;
10769;SDS011;5437;50.852;4.438;2023-02-03T14:35:34;4.47;;;2.92;;
10769;SDS011;5437;50.852;4.438;2023-02-03T14:38:02;7.50;;;3.22;;
10769;SDS011;5437;50.852;4.438;2023-02-03T14:50:56;6.95;;;2.70;;
10769;SDS011;5437;50.852;4.438;2023-02-03T14:53:48;3.42;;;2.20;;
10769;SDS011;5437;50.852;4.438;2023-02-03T14:58:48;4.18;;;2.00;;
10769;SDS011;5437;50.852;4.438;2023-02-03T15:01:22;5.75;;;2.35;;
10769;SDS011;5437;50.852;4.438;2023-02-03T15:06:53;3.45;;;2.20;;
10769;SDS011;5437;50.852;4.438;2023-02-03T15:09:38;4.38;;;1.92;;
10769;SDS011;5437;50.852;4.438;2023-02-03T15:12:16;2.10;;;1.80;;
10769;SDS011;5437;50.852;4.438;2023-02-03T15:14:43;3.80;;;2.03;;
10769;SDS011;5437;50.852;4.438;2023-02-03T15:19:44;3.63;;;2.10;;
10769;SDS011;5437;50.852;4.438;2023-02-03T15:22:17;4.82;;;2.13;;
10769;SDS011;5437;50.852;4.438;2023-02-03T15:24:43;5.32;;;2.10;;
10769;SDS011;5437;50.852;4.438;2023-02-03T15:27:18;5.28;;;2.20;;
10769;SDS011;5437;50.852;4.438;2023-02-03T15:29:46;2.85;;;2.20;;
10769;SDS011;5437;50.852;4.438;2023-02-03T15:32:13;4.07;;;2.30;;
10769;SDS011;5437;50.852;4.438;2023-02-03T15:37:10;2.78;;;2.35;;
10769;SDS011;5437;50.852;4.438;2023-02-03T15:42:16;2.63;;;2.08;;
10769;SDS011;5437;50.852;4.438;2023-02-03T15:45:07;4.75;;;2.60;;
10769;SDS011;5437;50.852;4.438;2023-02-03T15:47:33;3.72;;;2.25;;
10769;SDS011;5437;50.852;4.438;2023-02-03T15:50:05;2.95;;;2.22;;
10769;SDS011;5437;50.852;4.438;2023-02-03T15:52:32;6.05;;;2.50;;
10769;SDS011;5437;50.852;4.438;2023-02-03T15:55:02;3.97;;;2.70;;
10769;SDS011;5437;50.852;4.438;2023-02-03T15:57:32;6.60;;;3.45;;
10769;SDS011;5437;50.852;4.438;2023-02-03T16:00:02;6.30;;;4.10;;
10769;SDS011;5437;50.852;4.438;2023-02-03T16:02:34;4.53;;;2.63;;
10769;SDS011;5437;50.852;4.438;2023-02-03T16:05:37;34.92;;;7.00;;
10769;SDS011;5437;50.852;4.438;2023-02-03T16:07:56;4.57;;;2.50;;
10769;SDS011;5437;50.852;4.438;2023-02-03T16:12:52;3.47;;;2.47;;
10769;SDS011;5437;50.852;4.438;2023-02-03T16:15:22;2.95;;;2.25;;
10769;SDS011;5437;50.852;4.438;2023-02-03T16:17:53;3.38;;;2.58;;
10769;SDS011;5437;50.852;4.438;2023-02-03T16:20:22;4.65;;;2.30;;
10769;SDS011;5437;50.852;4.438;2023-02-03T16:22:59;4.35;;;2.08;;
10769;SDS011;5437;50.852;4.438;2023-02-03T16:25:27;5.18;;;2.38;;
10769;SDS011;5437;50.852;4.438;2023-02-03T16:27:57;7.28;;;2.70;;
10769;SDS011;5437;50.852;4.438;2023-02-03T16:30:59;3.55;;;2.50;;
10769;SDS011;5437;50.852;4.438;2023-02-03T16:33:45;10.00;;;2.95;;
10769;SDS011;5437;50.852;4.438;2023-02-03T16:36:30;3.17;;;2.60;;
10769;SDS011;5437;50.852;4.438;2023-02-03T16:39:15;3.88;;;2.65;;
10769;SDS011;5437;50.852;4.438;2023-02-03T16:42:00;4.90;;;2.72;;
10769;SDS011;5437;50.852;4.438;2023-02-03T16:44:50;5.93;;;2.85;;
10769;SDS011;5437;50.852;4.438;2023-02-03T16:47:37;6.65;;;2.97;;
10769;SDS011;5437;50.852;4.438;2023-02-03T16:50:22;7.65;;;2.60;;
10769;SDS011;5437;50.852;4.438;2023-02-03T16:53:26;3.97;;;2.15;;
10769;SDS011;5437;50.852;4.438;2023-02-03T16:55:54;6.38;;;3.10;;
10769;SDS011;5437;50.852;4.438;2023-02-03T16:58:21;4.10;;;2.53;;
10769;SDS011;5437;50.852;4.438;2023-02-03T17:00:49;4.45;;;2.58;;
10769;SDS011;5437;50.852;4.438;2023-02-03T17:03:17;7.63;;;3.58;;
10769;SDS011;5437;50.852;4.438;2023-02-03T17:05:44;4.28;;;2.65;;
10769;SDS011;5437;50.852;4.438;2023-02-03T17:08:10;3.88;;;2.90;;
10769;SDS011;5437;50.852;4.438;2023-02-03T17:10:37;7.18;;;3.50;;
10769;SDS011;5437;50.852;4.438;2023-02-03T17:13:03;4.15;;;3.25;;
10769;SDS011;5437;50.852;4.438;2023-02-03T17:15:30;4.57;;;2.50;;
10769;SDS011;5437;50.852;4.438;2023-02-03T17:17:59;3.38;;;2.70;;
10769;SDS011;5437;50.852;4.438;2023-02-03T17:20:25;3.63;;;2.70;;
10769;SDS011;5437;50.852;4.438;2023-02-03T17:22:51;4.38;;;2.75;;
10769;SDS011;5437;50.852;4.438;2023-02-03T17:25:18;2.90;;;2.40;;
10769;SDS011;5437;50.852;4.438;2023-02-03T17:27:45;5.05;;;2.78;;
10769;SDS011;5437;50.852;4.438;2023-02-03T17:30:11;4.53;;;2.75;;
10769;SDS011;5437;50.852;4.438;2023-02-03T17:32:37;4.97;;;2.70;;
10769;SDS011;5437;50.852;4.438;2023-02-03T17:35:03;5.05;;;2.88;;
10769;SDS011;5437;50.852;4.438;2023-02-03T17:37:32;4.72;;;2.83;;
10769;SDS011;5437;50.852;4.438;2023-02-03T17:39:58;5.40;;;2.83;;